Time;durP1;ratioP1;P1;durP2;ratioP2;P2;SDS_P1;SDS_P2;PMS_P1;PMS_P2;Temp;Humidity;BMP_temperature;BMP_pressure;BME280_temperature;BME280_humidity;BME280_pressure;Samples;Min_cycle;Max_cycle;Signal;HPM_P1;HPM_P2
2023/04/28 05:45:51;;;;;;;;;0.00;0.00;;;;;;;;5559552;22;51000;-71
2023/04/28 05:48:17;;;;;;;;;0.00;0.00;;;;;;;;6234932;22;49581;-72
2023/04/28 05:50:42;;;;;;;;;0.00;0.00;;;;;;;;6234143;22;51351;-71
2023/04/28 05:53:07;;;;;;;;;0.00;0.00;;;;;;;;6235187;22;49738;-69
2023/04/28 05:55:35;;;;;;;;;0.00;0.00;;;;;;;;6234843;22;49924;-70
2023/04/28 05:58:00;;;;;;;;;0.00;0.00;;;;;;;;6234880;22;49876;-72
2023/04/28 06:00:26;;;;;;;;;0.00;0.00;;;;;;;;6207079;22;50903;-67
2023/04/28 06:02:51;;;;;;;;;0.00;0.00;;;;;;;;6207359;22;50225;-66
2023/04/28 06:05:16;;;;;;;;;0.00;0.00;;;;;;;;6235165;22;49788;-67
2023/04/28 06:07:41;;;;;;;;;0.00;0.00;;;;;;;;6207110;22;50001;-67
2023/04/28 06:10:07;;;;;;;;;0.00;0.00;;;;;;;;6234423;22;50142;-68
2023/04/28 06:12:32;;;;;;;;;0.00;0.00;;;;;;;;6234486;22;50164;-70
2023/04/28 06:14:57;;;;;;;;;0.00;0.00;;;;;;;;6233389;22;50190;-68
2023/04/28 06:17:22;;;;;;;;;0.00;0.00;;;;;;;;6234695;22;49603;-68
2023/04/28 06:19:50;;;;;;;;;0.00;0.00;;;;;;;;6234622;22;50579;-68
2023/04/28 06:22:15;;;;;;;;;0.00;0.00;;;;;;;;6234708;22;49650;-68
2023/04/28 06:24:40;;;;;;;;;0.00;0.00;;;;;;;;6234866;22;49602;-72
2023/04/28 06:27:05;;;;;;;;;0.00;0.00;;;;;;;;6232791;22;49912;-73
2023/04/28 06:29:31;;;;;;;;;0.00;0.00;;;;;;;;6233615;22;49892;-72
2023/04/28 06:31:56;;;;;;;;;0.00;0.00;;;;;;;;6234486;22;49702;-74
2023/04/28 06:34:26;;;;;;;;;0.00;0.00;;;;;;;;6234025;22;49770;-74
2023/04/28 06:36:51;;;;;;;;;0.00;0.00;;;;;;;;6234243;22;49690;-74
2023/04/28 06:39:16;;;;;;;;;0.00;0.00;;;;;;;;6234531;22;50616;-74
2023/04/28 06:41:42;;;;;;;;;0.00;0.00;;;;;;;;6234532;22;49690;-73
2023/04/28 06:44:07;;;;;;;;;0.00;0.00;;;;;;;;6234356;22;49706;-73
2023/04/28 06:46:32;;;;;;;;;0.00;0.00;;;;;;;;6233644;22;49621;-73
2023/04/28 06:48:57;;;;;;;;;0.00;0.00;;;;;;;;6233976;22;50388;-73
2023/04/28 06:51:22;;;;;;;;;0.00;0.00;;;;;;;;6226645;22;49714;-72
2023/04/28 06:53:50;;;;;;;;;0.00;0.00;;;;;;;;6230835;22;50417;-68
2023/04/28 06:56:15;;;;;;;;;0.00;0.00;;;;;;;;6234131;22;49859;-72
2023/04/28 06:58:40;;;;;;;;;0.00;0.00;;;;;;;;6233751;22;49756;-69
2023/04/28 07:01:05;;;;;;;;;0.00;0.00;;;;;;;;6233891;22;49685;-73
2023/04/28 07:03:31;;;;;;;;;0.00;0.00;;;;;;;;6230967;22;49687;-69
2023/04/28 07:05:56;;;;;;;;;0.00;0.00;;;;;;;;6205783;22;50016;-68
2023/04/28 07:08:21;;;;;;;;;0.00;0.00;;;;;;;;6231398;22;51154;-68
2023/04/28 07:10:47;;;;;;;;;0.00;0.00;;;;;;;;6232420;22;49644;-69
2023/04/28 07:13:12;;;;;;;;;0.00;0.00;;;;;;;;6233668;22;49505;-69
2023/04/28 07:15:37;;;;;;;;;0.00;0.00;;;;;;;;6225986;22;49896;-69
2023/04/28 07:18:02;;;;;;;;;0.00;0.00;;;;;;;;6232910;22;49840;-69
2023/04/28 07:20:27;;;;;;;;;0.00;0.00;;;;;;;;6233108;22;49677;-69
2023/04/28 07:22:53;;;;;;;;;0.00;0.00;;;;;;;;6233804;22;49786;-69
2023/04/28 07:25:18;;;;;;;;;0.00;0.00;;;;;;;;6234332;22;49551;-68
2023/04/28 07:27:44;;;;;;;;;0.00;0.00;;;;;;;;6206637;22;51320;-68
2023/04/28 07:30:09;;;;;;;;;0.00;0.00;;;;;;;;6234573;22;50033;-69
2023/04/28 07:32:35;;;;;;;;;0.00;0.00;;;;;;;;6234513;22;49998;-68
2023/04/28 07:35:00;;;;;;;;;0.00;0.00;;;;;;;;6235094;22;49935;-69
2023/04/28 07:37:26;;;;;;;;;0.00;0.00;;;;;;;;6233939;22;49859;-69
2023/04/28 07:39:51;;;;;;;;;0.00;0.00;;;;;;;;6234640;22;50010;-69
2023/04/28 07:42:17;;;;;;;;;0.00;0.00;;;;;;;;6234026;22;50019;-69
2023/04/28 07:44:43;;;;;;;;;0.00;0.00;;;;;;;;6234954;22;49910;-69
2023/04/28 07:47:08;;;;;;;;;0.00;0.00;;;;;;;;6233469;22;51516;-69
2023/04/28 07:49:33;;;;;;;;;0.00;0.00;;;;;;;;6263200;22;49815;-69
2023/04/28 07:51:58;;;;;;;;;0.00;0.00;;;;;;;;6265041;22;49795;-70
2023/04/28 07:54:23;;;;;;;;;0.00;0.00;;;;;;;;6265784;22;50007;-70
2023/04/28 07:56:49;;;;;;;;;0.00;0.00;;;;;;;;6265341;22;50310;-70
2023/04/28 07:59:14;;;;;;;;;0.00;0.00;;;;;;;;6265445;22;49680;-70
2023/04/28 08:01:39;;;;;;;;;0.00;0.00;;;;;;;;6265632;22;50162;-70
2023/04/28 08:04:05;;;;;;;;;0.00;0.00;;;;;;;;6266069;22;50211;-70
2023/04/28 08:06:30;;;;;;;;;0.00;0.00;;;;;;;;6265374;22;50232;-70
2023/04/28 08:08:55;;;;;;;;;0.00;0.00;;;;;;;;6265636;22;50231;-70
2023/04/28 08:11:21;;;;;;;;;0.00;0.00;;;;;;;;6264385;22;49760;-69
2023/04/28 08:13:46;;;;;;;;;0.00;0.00;;;;;;;;6265622;22;49592;-70
2023/04/28 08:16:12;;;;;;;;;0.00;0.00;;;;;;;;6265744;22;50301;-70
2023/04/28 08:18:38;;;;;;;;;0.00;0.00;;;;;;;;6265255;22;49591;-67
2023/04/28 08:21:03;;;;;;;;;0.00;0.00;;;;;;;;6265232;22;50023;-67
2023/04/28 08:23:30;;;;;;;;;0.00;0.00;;;;;;;;6265090;22;49983;-67
2023/04/28 08:25:56;;;;;;;;;0.00;0.00;;;;;;;;6264048;22;49901;-68
2023/04/28 08:28:21;;;;;;;;;0.00;0.00;;;;;;;;6265075;22;49646;-67
2023/04/28 08:30:46;;;;;;;;;0.00;0.00;;;;;;;;6264894;22;50113;-75
2023/04/28 08:33:11;;;;;;;;;0.00;0.00;;;;;;;;6266282;22;50021;-68
2023/04/28 08:35:37;;;;;;;;;0.00;0.00;;;;;;;;6265017;22;51228;-68
2023/04/28 08:38:02;;;;;;;;;0.00;0.00;;;;;;;;6265319;22;49757;-68
2023/04/28 08:40:30;;;;;;;;;0.00;0.00;;;;;;;;6265804;22;49689;-68
2023/04/28 08:42:55;;;;;;;;;0.00;0.00;;;;;;;;6265461;22;49831;-69
2023/04/28 08:45:22;;;;;;;;;0.00;0.00;;;;;;;;6259210;22;49709;-69
2023/04/28 08:47:48;;;;;;;;;0.00;0.00;;;;;;;;6235102;22;49889;-69
2023/04/28 08:50:14;;;;;;;;;0.00;0.00;;;;;;;;6234518;22;49931;-70
2023/04/28 08:52:41;;;;;;;;;0.00;0.00;;;;;;;;6235107;22;49885;-68
2023/04/28 08:55:08;;;;;;;;;0.00;0.00;;;;;;;;6234582;22;50560;-69
2023/04/28 08:57:51;;;;;;;;;0.00;0.00;;;;;;;;6234591;22;49639;-69
2023/04/28 09:00:17;;;;;;;;;0.00;0.00;;;;;;;;6234996;22;50197;-69
2023/04/28 09:02:42;;;;;;;;;0.00;0.00;;;;;;;;6234987;22;49925;-68
2023/04/28 09:05:07;;;;;;;;;0.00;0.00;;;;;;;;6234733;22;50083;-68
2023/04/28 09:07:33;;;;;;;;;0.00;0.00;;;;;;;;6234242;22;49706;-69
2023/04/28 09:10:07;;;;;;;;;0.00;0.00;;;;;;;;6234811;22;50502;-69
2023/04/28 09:12:36;;;;;;;;;0.00;0.00;;;;;;;;6235281;22;49952;-69
2023/04/28 09:15:08;;;;;;;;;0.00;0.00;;;;;;;;6234897;22;49633;-69
2023/04/28 09:17:45;;;;;;;;;0.00;0.00;;;;;;;;6207213;22;49699;-69
2023/04/28 09:20:24;;;;;;;;;0.00;0.00;;;;;;;;6234640;22;49975;-70
2023/04/28 09:22:50;;;;;;;;;0.00;0.00;;;;;;;;6234688;22;49583;-69
2023/04/28 09:25:15;;;;;;;;;0.00;0.00;;;;;;;;6234205;22;49888;-70
2023/04/28 09:27:40;;;;;;;;;0.00;0.00;;;;;;;;6233973;22;49507;-69
2023/04/28 09:30:06;;;;;;;;;0.00;0.00;;;;;;;;6234277;22;49767;-69
2023/04/28 09:32:31;;;;;;;;;0.00;0.00;;;;;;;;6234492;22;49906;-69
2023/04/28 09:34:57;;;;;;;;;0.00;0.00;;;;;;;;6233460;22;50854;-69
2023/04/28 09:37:23;;;;;;;;;0.00;0.00;;;;;;;;6234330;22;49595;-70
2023/04/28 09:39:49;;;;;;;;;0.00;0.00;;;;;;;;6234359;22;49972;-69
2023/04/28 09:42:34;;;;;;;;;0.00;0.00;;;;;;;;6207473;22;49556;-70
2023/04/28 09:45:01;;;;;;;;;0.00;0.00;;;;;;;;6234267;22;50019;-70
2023/04/28 09:47:26;;;;;;;;;0.00;0.00;;;;;;;;6234601;22;49603;-69
2023/04/28 09:49:52;;;;;;;;;0.00;0.00;;;;;;;;6234506;22;49915;-69
2023/04/28 09:52:17;;;;;;;;;0.00;0.00;;;;;;;;6234441;22;49926;-69
2023/04/28 09:54:43;;;;;;;;;0.00;0.00;;;;;;;;6233748;22;50524;-70
2023/04/28 09:57:08;;;;;;;;;0.00;0.00;;;;;;;;6234915;22;50049;-70
2023/04/28 09:59:34;;;;;;;;;0.75;0.00;;;;;;;;6234281;22;49595;-69
2023/04/28 10:01:59;;;;;;;;;0.00;0.00;;;;;;;;6233564;22;49673;-70
2023/04/28 10:04:25;;;;;;;;;0.00;0.00;;;;;;;;6234375;22;50421;-70
2023/04/28 10:06:52;;;;;;;;;0.00;0.00;;;;;;;;6234565;22;50065;-69
2023/04/28 10:09:25;;;;;;;;;0.00;0.00;;;;;;;;6233469;22;50047;-70
2023/04/28 10:11:50;;;;;;;;;0.00;0.00;;;;;;;;6233967;22;50237;-70
2023/04/28 10:14:15;;;;;;;;;0.00;0.00;;;;;;;;6233813;22;51156;-69
2023/04/28 10:16:41;;;;;;;;;0.00;0.00;;;;;;;;6234588;22;49602;-67
2023/04/28 10:19:07;;;;;;;;;0.00;0.00;;;;;;;;6232675;22;49682;-71
2023/04/28 10:21:34;;;;;;;;;0.00;0.00;;;;;;;;6233106;22;49923;-70
2023/04/28 10:24:13;;;;;;;;;0.00;0.00;;;;;;;;6234024;22;51178;-70
2023/04/28 10:26:49;;;;;;;;;0.00;0.00;;;;;;;;6207268;22;49754;-71
2023/04/28 10:29:15;;;;;;;;;0.00;0.00;;;;;;;;6233867;22;49847;-78
2023/04/28 10:32:00;;;;;;;;;0.00;0.00;;;;;;;;6234624;22;49941;-77
2023/04/28 10:34:27;;;;;;;;;0.00;0.00;;;;;;;;6233380;22;50612;-77
2023/04/28 10:36:54;;;;;;;;;0.00;0.00;;;;;;;;6234118;22;50059;-77
2023/04/28 10:39:19;;;;;;;;;0.00;0.00;;;;;;;;6234374;22;49686;-77
2023/04/28 10:41:46;;;;;;;;;0.00;0.00;;;;;;;;6234943;22;49916;-77
2023/04/28 10:44:37;;;;;;;;;0.00;0.00;;;;;;;;6234486;22;49722;-76
2023/04/28 10:47:02;;;;;;;;;0.00;0.00;;;;;;;;6225889;22;50178;-77
2023/04/28 10:49:46;;;;;;;;;0.00;0.00;;;;;;;;6234564;22;49943;-76
2023/04/28 10:52:30;;;;;;;;;0.00;0.00;;;;;;;;6206332;22;49781;-75
2023/04/28 10:55:14;;;;;;;;;0.00;0.00;;;;;;;;6233650;22;51729;-76
2023/04/28 10:57:40;;;;;;;;;0.00;0.00;;;;;;;;6233439;22;49544;-74
2023/04/28 11:00:24;;;;;;;;;0.00;0.00;;;;;;;;6233459;22;49794;-78
2023/04/28 11:02:49;;;;;;;;;0.00;0.00;;;;;;;;6234242;22;49534;-75
2023/04/28 11:05:17;;;;;;;;;0.00;0.00;;;;;;;;6234187;22;50353;-74
2023/04/28 11:08:02;;;;;;;;;0.00;0.00;;;;;;;;6234826;22;50063;-78
2023/04/28 11:10:47;;;;;;;;;0.00;0.00;;;;;;;;6235003;22;50018;-75
2023/04/28 11:13:26;;;;;;;;;0.00;0.00;;;;;;;;6207239;22;50140;-73
2023/04/28 11:16:17;;;;;;;;;0.00;0.00;;;;;;;;6234704;22;49784;-74
2023/04/28 11:19:03;;;;;;;;;0.00;0.00;;;;;;;;6227301;22;49623;-72
2023/04/28 11:21:28;;;;;;;;;0.00;0.00;;;;;;;;6234856;22;50009;-77
2023/04/28 11:23:53;;;;;;;;;0.00;0.00;;;;;;;;6235236;22;50386;-83
2023/04/28 11:26:19;;;;;;;;;0.00;0.00;;;;;;;;6234480;22;50600;-73
2023/04/28 11:28:51;;;;;;;;;0.00;0.00;;;;;;;;6234559;22;49819;-75
2023/04/28 11:31:23;;;;;;;;;0.00;0.00;;;;;;;;6235087;22;49779;-81
2023/04/28 11:33:51;;;;;;;;;0.00;0.00;;;;;;;;6235514;22;49958;-72
2023/04/28 11:36:22;;;;;;;;;0.00;0.00;;;;;;;;6234979;22;51320;-73
2023/04/28 11:38:48;;;;;;;;;0.00;0.00;;;;;;;;6234974;22;49723;-74
2023/04/28 11:41:13;;;;;;;;;0.00;0.00;;;;;;;;6235116;22;49936;-73
2023/04/28 11:43:38;;;;;;;;;0.00;0.00;;;;;;;;6235515;22;49547;-73
2023/04/28 11:46:06;;;;;;;;;0.00;0.00;;;;;;;;6234473;22;49704;-71
2023/04/28 11:48:31;;;;;;;;;0.00;0.00;;;;;;;;6235506;22;49685;-71
2023/04/28 11:50:56;;;;;;;;;0.00;0.00;;;;;;;;6235653;22;49695;-78
2023/04/28 11:53:39;;;;;;;;;0.00;0.00;;;;;;;;6235010;22;49527;-80
2023/04/28 11:56:06;;;;;;;;;0.00;0.00;;;;;;;;6234077;22;50867;-79
2023/04/28 11:58:32;;;;;;;;;0.00;0.00;;;;;;;;6233982;22;50283;-77
2023/04/28 12:01:07;;;;;;;;;0.00;0.00;;;;;;;;6234704;22;50030;-78
2023/04/28 12:03:32;;;;;;;;;0.00;0.00;;;;;;;;6233154;22;49634;-80
2023/04/28 12:05:57;;;;;;;;;0.00;0.00;;;;;;;;6233382;22;51534;-83
2023/04/28 12:08:26;;;;;;;;;0.00;0.00;;;;;;;;6235249;22;49650;-85
2023/04/28 12:11:11;;;;;;;;;0.00;0.00;;;;;;;;6234462;22;49994;-76
2023/04/28 12:13:37;;;;;;;;;0.00;0.00;;;;;;;;6234390;22;49992;-79
2023/04/28 12:16:06;;;;;;;;;0.00;0.00;;;;;;;;6228145;22;49661;-77
2023/04/28 12:18:32;;;;;;;;;0.00;0.00;;;;;;;;6233066;22;49712;-77
2023/04/28 12:20:57;;;;;;;;;0.00;0.00;;;;;;;;6234658;22;49973;-75
2023/04/28 12:23:29;;;;;;;;;0.00;0.00;;;;;;;;6234235;22;50001;-76
2023/04/28 12:25:56;;;;;;;;;0.00;0.00;;;;;;;;6233726;22;51381;-74
2023/04/28 12:28:21;;;;;;;;;0.00;0.00;;;;;;;;6234548;22;49658;-75
2023/04/28 12:30:46;;;;;;;;;0.00;0.00;;;;;;;;6232547;22;49994;-75
2023/04/28 12:33:28;;;;;;;;;0.00;0.00;;;;;;;;6206753;22;49954;-74
2023/04/28 12:35:55;;;;;;;;;0.00;0.00;;;;;;;;6233903;22;50074;-74
2023/04/28 12:38:20;;;;;;;;;0.00;0.00;;;;;;;;6233787;22;49997;-74
2023/04/28 12:40:46;;;;;;;;;0.00;0.00;;;;;;;;6204871;22;50036;-74
2023/04/28 12:43:11;;;;;;;;;0.00;0.00;;;;;;;;6232537;22;49587;-74
2023/04/28 12:45:36;;;;;;;;;0.00;0.00;;;;;;;;6232254;22;50213;-72
2023/04/28 12:48:02;;;;;;;;;0.00;0.00;;;;;;;;6233015;22;50147;-73
2023/04/28 12:50:31;;;;;;;;;0.00;0.00;;;;;;;;6233199;22;49769;-74
2023/04/28 12:52:56;;;;;;;;;0.00;0.00;;;;;;;;6233117;22;49976;-74
2023/04/28 12:55:22;;;;;;;;;0.00;0.00;;;;;;;;6232794;22;50441;-74
2023/04/28 12:57:47;;;;;;;;;0.00;0.00;;;;;;;;6205302;22;50075;-73
2023/04/28 13:00:15;;;;;;;;;0.00;0.00;;;;;;;;6232956;22;49657;-73
2023/04/28 13:02:40;;;;;;;;;0.00;0.00;;;;;;;;6234101;22;49879;-74
2023/04/28 13:05:06;;;;;;;;;0.00;0.00;;;;;;;;6234190;22;50160;-74
2023/04/28 13:07:32;;;;;;;;;0.00;0.00;;;;;;;;6234435;22;49623;-73
2023/04/28 13:09:57;;;;;;;;;0.00;0.00;;;;;;;;6233501;22;49722;-73
2023/04/28 13:12:23;;;;;;;;;0.00;0.00;;;;;;;;6234671;22;50087;-74
2023/04/28 13:14:48;;;;;;;;;0.00;0.00;;;;;;;;6232421;22;50399;-74
2023/04/28 13:17:14;;;;;;;;;0.00;0.00;;;;;;;;6233180;22;49658;-74
2023/04/28 13:19:39;;;;;;;;;0.00;0.00;;;;;;;;6233414;22;49978;-74
2023/04/28 13:22:05;;;;;;;;;0.00;0.00;;;;;;;;6233628;22;49617;-74
2023/04/28 13:24:32;;;;;;;;;0.00;0.00;;;;;;;;6231811;22;50509;-74
2023/04/28 13:26:58;;;;;;;;;0.00;0.00;;;;;;;;6232128;22;49873;-73
2023/04/28 13:29:23;;;;;;;;;0.00;0.00;;;;;;;;6232722;22;49974;-73
2023/04/28 13:31:48;;;;;;;;;0.00;0.00;;;;;;;;6205460;22;49512;-73
2023/04/28 13:34:17;;;;;;;;;0.00;0.00;;;;;;;;6232063;22;51512;-75
2023/04/28 13:36:43;;;;;;;;;0.00;0.00;;;;;;;;6232299;22;49690;-75
2023/04/28 13:39:10;;;;;;;;;0.00;0.00;;;;;;;;6233084;22;49626;-74
2023/04/28 13:41:36;;;;;;;;;0.00;0.00;;;;;;;;6233099;22;49688;-75
2023/04/28 13:44:01;;;;;;;;;0.00;0.00;;;;;;;;6232996;22;50044;-76
2023/04/28 13:46:26;;;;;;;;;0.00;0.00;;;;;;;;6232197;22;49978;-72
2023/04/28 13:48:52;;;;;;;;;0.00;0.00;;;;;;;;6234470;22;49868;-74
2023/04/28 13:51:17;;;;;;;;;0.00;0.00;;;;;;;;6232429;22;50028;-76
2023/04/28 13:53:43;;;;;;;;;0.00;0.00;;;;;;;;6233968;22;51055;-73
2023/04/28 13:56:08;;;;;;;;;0.00;0.00;;;;;;;;6234635;22;49852;-74
2023/04/28 13:58:33;;;;;;;;;0.00;0.00;;;;;;;;6235966;22;49868;-83
2023/04/28 14:00:59;;;;;;;;;0.00;0.00;;;;;;;;6208017;22;49587;-86
2023/04/28 14:03:24;;;;;;;;;0.00;0.00;;;;;;;;6233252;22;50408;-78
2023/04/28 14:05:50;;;;;;;;;0.00;0.00;;;;;;;;6232934;22;49763;-77
2023/04/28 14:08:16;;;;;;;;;0.00;0.00;;;;;;;;6233953;22;49876;-85
2023/04/28 14:10:41;;;;;;;;;0.00;0.00;;;;;;;;6235460;22;49548;-88
2023/04/28 14:13:06;;;;;;;;;0.00;0.00;;;;;;;;6234288;22;50571;-87
2023/04/28 14:15:32;;;;;;;;;0.00;0.00;;;;;;;;6233681;22;49974;-84
2023/04/28 14:17:57;;;;;;;;;0.00;0.00;;;;;;;;6234369;22;49595;-82
2023/04/28 14:20:22;;;;;;;;;0.00;0.00;;;;;;;;6234877;22;49910;-83
2023/04/28 14:22:47;;;;;;;;;0.00;0.00;;;;;;;;6234076;22;50827;-85
2023/04/28 14:25:12;;;;;;;;;0.00;0.00;;;;;;;;6234078;22;49709;-79
2023/04/28 14:27:38;;;;;;;;;0.00;0.00;;;;;;;;6233058;22;49774;-78
2023/04/28 14:30:03;;;;;;;;;0.00;0.00;;;;;;;;6205781;22;49869;-81
2023/04/28 14:32:29;;;;;;;;;0.00;0.00;;;;;;;;6233801;22;49942;-75
2023/04/28 14:34:54;;;;;;;;;0.00;0.00;;;;;;;;6233849;22;49892;-81
2023/04/28 14:37:20;;;;;;;;;0.00;0.00;;;;;;;;6234057;22;49659;-83
2023/04/28 14:39:45;;;;;;;;;0.00;0.00;;;;;;;;6234563;22;49691;-85
2023/04/28 14:42:10;;;;;;;;;0.00;0.00;;;;;;;;6235515;22;50166;-82
2023/04/28 14:44:36;;;;;;;;;0.00;0.00;;;;;;;;6233688;22;49796;-84
2023/04/28 14:47:02;;;;;;;;;0.00;0.00;;;;;;;;6234154;22;49729;-84
2023/04/28 14:49:27;;;;;;;;;0.00;0.00;;;;;;;;6233832;22;49652;-83
2023/04/28 14:51:53;;;;;;;;;0.00;0.00;;;;;;;;6231764;22;50501;-81
2023/04/28 14:54:18;;;;;;;;;0.00;0.00;;;;;;;;6232037;22;49666;-72
2023/04/28 14:56:44;;;;;;;;;0.00;0.00;;;;;;;;6233069;22;49771;-71
2023/04/28 14:59:09;;;;;;;;;0.00;0.00;;;;;;;;6233143;22;49921;-68
2023/04/28 15:01:34;;;;;;;;;0.00;0.00;;;;;;;;6229663;22;50338;-71
2023/04/28 15:03:59;;;;;;;;;0.00;0.00;;;;;;;;6232316;22;49949;-68
2023/04/28 15:06:25;;;;;;;;;0.00;0.00;;;;;;;;6231388;22;49477;-69
2023/04/28 15:08:51;;;;;;;;;0.00;0.00;;;;;;;;6232678;22;49617;-68
2023/04/28 15:11:16;;;;;;;;;0.00;0.00;;;;;;;;6230613;22;49832;-69
2023/04/28 15:13:41;;;;;;;;;0.00;0.00;;;;;;;;6231697;22;50108;-68
2023/04/28 15:16:06;;;;;;;;;0.00;0.00;;;;;;;;6231407;22;49784;-68
2023/04/28 15:18:32;;;;;;;;;0.00;0.00;;;;;;;;6204802;22;49809;-71
2023/04/28 15:20:57;;;;;;;;;0.00;0.00;;;;;;;;6231948;22;49736;-68
2023/04/28 15:23:22;;;;;;;;;0.00;0.00;;;;;;;;6231458;22;49871;-68
2023/04/28 15:25:51;;;;;;;;;0.00;0.00;;;;;;;;6231543;22;50180;-68
2023/04/28 15:28:16;;;;;;;;;0.00;0.00;;;;;;;;6232583;22;49566;-68
2023/04/28 15:30:42;;;;;;;;;0.00;0.00;;;;;;;;6231617;22;49971;-68
2023/04/28 15:33:07;;;;;;;;;0.00;0.00;;;;;;;;6205556;22;50103;-69
2023/04/28 15:35:33;;;;;;;;;0.00;0.00;;;;;;;;6234120;22;49841;-68
2023/04/28 15:37:59;;;;;;;;;0.00;0.00;;;;;;;;6233937;22;49957;-68
2023/04/28 15:40:24;;;;;;;;;0.00;0.00;;;;;;;;6230980;22;50262;-68
2023/04/28 15:42:51;;;;;;;;;0.00;0.00;;;;;;;;6232810;22;49875;-68
2023/04/28 15:45:18;;;;;;;;;0.00;0.00;;;;;;;;6233460;22;49771;-69
2023/04/28 15:47:45;;;;;;;;;0.00;0.00;;;;;;;;6233789;22;49804;-68
2023/04/28 15:50:11;;;;;;;;;0.00;0.00;;;;;;;;6234479;22;49535;-67
2023/04/28 15:52:39;;;;;;;;;0.00;0.00;;;;;;;;6234552;22;49839;-68
2023/04/28 15:55:05;;;;;;;;;0.00;0.00;;;;;;;;6207198;22;49600;-66
2023/04/28 15:57:31;;;;;;;;;0.00;0.00;;;;;;;;6235159;22;49950;-67
2023/04/28 15:59:56;;;;;;;;;0.00;0.00;;;;;;;;6181661;22;51414;-68
2023/04/28 16:02:22;;;;;;;;;0.00;0.00;;;;;;;;6235268;22;49672;-69
2023/04/28 16:04:47;;;;;;;;;0.00;0.00;;;;;;;;6234304;22;50031;-69
2023/04/28 16:07:13;;;;;;;;;0.00;0.00;;;;;;;;6235040;22;49909;-70
2023/04/28 16:09:38;;;;;;;;;0.00;0.00;;;;;;;;6232870;22;50557;-68
2023/04/28 16:12:03;;;;;;;;;0.00;0.00;;;;;;;;6234769;22;49902;-68
2023/04/28 16:14:29;;;;;;;;;0.00;0.00;;;;;;;;6234540;22;49888;-71
2023/04/28 16:16:54;;;;;;;;;0.00;0.00;;;;;;;;6228637;22;49952;-71
2023/04/28 16:19:20;;;;;;;;;0.25;0.00;;;;;;;;6234799;22;50393;-70
2023/04/28 16:21:45;;;;;;;;;0.00;0.00;;;;;;;;6234855;22;50036;-69
2023/04/28 16:24:11;;;;;;;;;0.00;0.00;;;;;;;;6234012;22;49647;-70
2023/04/28 16:26:36;;;;;;;;;1.00;0.00;;;;;;;;6234824;22;50050;-71
2023/04/28 16:29:02;;;;;;;;;0.00;0.00;;;;;;;;6206884;22;49982;-70
2023/04/28 16:31:27;;;;;;;;;0.00;0.00;;;;;;;;6234221;22;49778;-78
2023/04/28 16:33:52;;;;;;;;;0.00;0.00;;;;;;;;6234961;22;49760;-71
2023/04/28 16:36:17;;;;;;;;;0.00;0.00;;;;;;;;6234531;22;50003;-70
2023/04/28 16:38:42;;;;;;;;;0.00;0.00;;;;;;;;6234142;22;50585;-71
2023/04/28 16:41:08;;;;;;;;;0.00;0.00;;;;;;;;6234787;22;49674;-70
2023/04/28 16:43:35;;;;;;;;;0.00;0.00;;;;;;;;6235289;22;50005;-73
2023/04/28 16:46:00;;;;;;;;;0.00;0.00;;;;;;;;6234290;22;49759;-70
2023/04/28 16:48:25;;;;;;;;;0.00;0.00;;;;;;;;6234778;22;49767;-69
2023/04/28 16:50:50;;;;;;;;;0.00;0.00;;;;;;;;6234898;22;49488;-70
2023/04/28 16:53:16;;;;;;;;;0.00;0.00;;;;;;;;6233779;22;50021;-70
2023/04/28 16:55:41;;;;;;;;;0.00;0.00;;;;;;;;6233141;22;49909;-69
2023/04/28 16:58:06;;;;;;;;;0.00;0.00;;;;;;;;6233100;22;50350;-70
2023/04/28 17:00:31;;;;;;;;;0.00;0.00;;;;;;;;6205739;22;49657;-69
2023/04/28 17:02:56;;;;;;;;;0.00;0.00;;;;;;;;6232268;22;49586;-69
2023/04/28 17:05:22;;;;;;;;;0.00;0.00;;;;;;;;6233766;22;50007;-69
2023/04/28 17:07:47;;;;;;;;;0.00;0.00;;;;;;;;6233018;22;50764;-69
2023/04/28 17:10:12;;;;;;;;;0.00;0.00;;;;;;;;6233384;22;49608;-69
2023/04/28 17:12:38;;;;;;;;;0.00;0.00;;;;;;;;6233975;22;49745;-70
2023/04/28 17:15:04;;;;;;;;;0.00;0.00;;;;;;;;6234818;22;49970;-69
2023/04/28 17:17:29;;;;;;;;;0.00;0.00;;;;;;;;6234612;22;49730;-69
2023/04/28 17:19:55;;;;;;;;;0.00;0.00;;;;;;;;6233889;22;49997;-68
2023/04/28 17:22:21;;;;;;;;;0.00;0.00;;;;;;;;6232929;22;49594;-69
2023/04/28 17:24:46;;;;;;;;;0.00;0.00;;;;;;;;6233131;22;49587;-69
2023/04/28 17:27:13;;;;;;;;;0.00;0.00;;;;;;;;6232924;22;51276;-69
2023/04/28 17:29:39;;;;;;;;;0.00;0.00;;;;;;;;6233068;22;50043;-69
2023/04/28 17:32:04;;;;;;;;;0.00;0.00;;;;;;;;6232910;22;49816;-67
2023/04/28 17:34:29;;;;;;;;;0.00;0.00;;;;;;;;6233363;22;49632;-68
2023/04/28 17:36:55;;;;;;;;;0.00;0.00;;;;;;;;6233134;22;50333;-68
2023/04/28 17:39:20;;;;;;;;;0.00;0.00;;;;;;;;6205831;22;49960;-69
2023/04/28 17:41:46;;;;;;;;;0.00;0.00;;;;;;;;6233096;22;49663;-69
2023/04/28 17:44:11;;;;;;;;;0.00;0.00;;;;;;;;6232500;22;49586;-67
2023/04/28 17:46:37;;;;;;;;;0.00;0.00;;;;;;;;6230986;22;50662;-73
2023/04/28 17:49:02;;;;;;;;;0.00;0.00;;;;;;;;6231979;22;49699;-74
2023/04/28 17:51:28;;;;;;;;;0.00;0.00;;;;;;;;6231440;22;49781;-70
2023/04/28 17:53:55;;;;;;;;;0.00;0.00;;;;;;;;6227747;22;49564;-71
2023/04/28 17:56:21;;;;;;;;;0.00;0.00;;;;;;;;6232375;22;50637;-71
2023/04/28 17:58:46;;;;;;;;;0.00;0.00;;;;;;;;6232937;22;49863;-70
2023/04/28 18:01:11;;;;;;;;;0.00;0.00;;;;;;;;6232006;22;49971;-70
2023/04/28 18:03:37;;;;;;;;;0.00;0.00;;;;;;;;6233451;22;50014;-71
2023/04/28 18:06:04;;;;;;;;;0.00;0.00;;;;;;;;6204560;22;50481;-71
2023/04/28 18:08:30;;;;;;;;;0.00;0.00;;;;;;;;6231903;22;49679;-69
2023/04/28 18:10:55;;;;;;;;;0.00;0.00;;;;;;;;6205589;22;50134;-72
2023/04/28 18:13:20;;;;;;;;;0.00;0.00;;;;;;;;6233251;22;49546;-71
2023/04/28 18:15:45;;;;;;;;;0.00;0.00;;;;;;;;6204963;22;49769;-72
2023/04/28 18:18:11;;;;;;;;;0.00;0.00;;;;;;;;6234044;22;50007;-70
2023/04/28 18:20:37;;;;;;;;;0.00;0.00;;;;;;;;6233064;22;49678;-71
2023/04/28 18:23:02;;;;;;;;;0.00;0.00;;;;;;;;6233350;22;49539;-72
2023/04/28 18:25:27;;;;;;;;;0.00;0.00;;;;;;;;6228785;22;49650;-72
2023/04/28 18:27:52;;;;;;;;;0.00;0.00;;;;;;;;6233558;22;50133;-70
2023/04/28 18:30:18;;;;;;;;;0.00;0.00;;;;;;;;6234534;22;49787;-71
2023/04/28 18:32:43;;;;;;;;;0.00;0.00;;;;;;;;6234450;22;49853;-72
2023/04/28 18:35:08;;;;;;;;;0.00;0.00;;;;;;;;6181322;22;51376;-72
2023/04/28 18:37:35;;;;;;;;;0.00;0.00;;;;;;;;6233696;22;49793;-71
2023/04/28 18:40:01;;;;;;;;;0.00;0.00;;;;;;;;6234888;22;49749;-70
2023/04/28 18:42:26;;;;;;;;;0.00;0.00;;;;;;;;6229968;22;50032;-70
2023/04/28 18:44:57;;;;;;;;;0.00;0.00;;;;;;;;6233341;22;50956;-75
2023/04/28 18:47:23;;;;;;;;;0.00;0.00;;;;;;;;6234854;22;49644;-74
2023/04/28 18:49:48;;;;;;;;;0.00;0.00;;;;;;;;6234290;22;49594;-76
2023/04/28 18:52:13;;;;;;;;;0.00;0.00;;;;;;;;6233826;22;49958;-75
2023/04/28 18:54:38;;;;;;;;;0.00;0.00;;;;;;;;6234209;22;51432;-75
2023/04/28 18:57:04;;;;;;;;;0.00;0.00;;;;;;;;6234978;22;49815;-74
2023/04/28 18:59:29;;;;;;;;;0.00;0.00;;;;;;;;6233698;22;49953;-73
2023/04/28 19:01:54;;;;;;;;;0.00;0.00;;;;;;;;6234925;22;49711;-74
2023/04/28 19:04:21;;;;;;;;;0.00;0.00;;;;;;;;6234430;22;50265;-72
2023/04/28 19:06:46;;;;;;;;;0.00;0.00;;;;;;;;6233964;22;49881;-73
2023/04/28 19:09:11;;;;;;;;;0.00;0.00;;;;;;;;6234035;22;49612;-74
2023/04/28 19:11:36;;;;;;;;;0.00;0.00;;;;;;;;6234545;22;49971;-73
2023/04/28 19:14:01;;;;;;;;;0.00;0.00;;;;;;;;6234121;22;50985;-80
2023/04/28 19:16:26;;;;;;;;;0.00;0.00;;;;;;;;6235267;22;49684;-74
2023/04/28 19:18:52;;;;;;;;;0.00;0.00;;;;;;;;6234288;22;49974;-75
2023/04/28 19:21:17;;;;;;;;;0.00;0.00;;;;;;;;6234925;22;49595;-75
2023/04/28 19:23:42;;;;;;;;;0.00;0.00;;;;;;;;6235382;22;49690;-76
2023/04/28 19:26:08;;;;;;;;;0.00;0.00;;;;;;;;6235755;22;49663;-76
2023/04/28 19:28:33;;;;;;;;;0.25;0.25;;;;;;;;6235604;22;49605;-73
2023/04/28 19:30:58;;;;;;;;;0.00;0.00;;;;;;;;6235978;22;49907;-73
2023/04/28 19:33:24;;;;;;;;;0.00;0.00;;;;;;;;6235383;22;50089;-73
2023/04/28 19:35:50;;;;;;;;;0.00;0.00;;;;;;;;6236020;22;49525;-72
2023/04/28 19:38:16;;;;;;;;;0.00;0.00;;;;;;;;6235825;22;49772;-80
2023/04/28 19:40:42;;;;;;;;;0.00;0.00;;;;;;;;6235795;22;49550;-78
2023/04/28 19:43:07;;;;;;;;;0.00;0.00;;;;;;;;6235179;22;49815;-75
2023/04/28 19:45:33;;;;;;;;;0.00;0.00;;;;;;;;6234555;22;50007;-75
2023/04/28 19:47:59;;;;;;;;;0.00;0.00;;;;;;;;6234782;22;49948;-77
2023/04/28 19:50:24;;;;;;;;;0.00;0.00;;;;;;;;6235702;22;49945;-76
2023/04/28 19:52:50;;;;;;;;;0.00;0.00;;;;;;;;6235306;22;49812;-75
2023/04/28 19:55:18;;;;;;;;;0.00;0.00;;;;;;;;6235118;22;49738;-76
2023/04/28 19:57:44;;;;;;;;;0.00;0.00;;;;;;;;6235543;22;49642;-76
2023/04/28 20:00:09;;;;;;;;;0.00;0.00;;;;;;;;6235890;22;49607;-77
2023/04/28 20:02:34;;;;;;;;;0.00;0.00;;;;;;;;6234698;22;50225;-76
2023/04/28 20:05:00;;;;;;;;;0.33;0.33;;;;;;;;6234944;22;49605;-76
2023/04/28 20:07:25;;;;;;;;;0.00;0.00;;;;;;;;6207990;22;49913;-76
2023/04/28 20:09:51;;;;;;;;;0.00;0.00;;;;;;;;6235161;22;49552;-76
2023/04/28 20:12:16;;;;;;;;;0.00;0.00;;;;;;;;6235172;22;50354;-76
2023/04/28 20:14:42;;;;;;;;;2.25;0.00;;;;;;;;6235178;22;49531;-75
2023/04/28 20:17:07;;;;;;;;;0.00;0.00;;;;;;;;6235425;22;49544;-76
2023/04/28 20:19:33;;;;;;;;;0.00;0.00;;;;;;;;6235538;22;49614;-76
2023/04/28 20:22:00;;;;;;;;;0.00;0.00;;;;;;;;6234837;22;51478;-75
2023/04/28 20:24:25;;;;;;;;;0.00;0.00;;;;;;;;6235199;22;49620;-76